Time;durP1;ratioP1;P1;durP2;ratioP2;P2;SDS_P1;SDS_P2;PMS_P1;PMS_P2;Temp;Humidity;BMP_temperature;BMP_pressure;BME280_temperature;BME280_humidity;BME280_pressure;Samples;Min_cycle;Max_cycle;Signal;HPM_P1;HPM_P2
2022/07/17 00:00:42;;;;;;;4.35;2.58;;;;;;;18.01;75.15;101177.25;5066775;28;20096;-82
2022/07/17 00:03:10;;;;;;;8.43;2.50;;;;;;;18.03;74.97;101171.72;5061703;28;20503;-82
2022/07/17 00:05:36;;;;;;;5.68;2.75;;;;;;;18.03;75.02;101171.72;5082594;28;20032;-82
2022/07/17 00:08:02;;;;;;;4.63;2.13;;;;;;;17.88;75.39;101171.63;5086233;28;20055;-82
2022/07/17 00:10:28;;;;;;;5.65;2.92;;;;;;;17.68;76.10;101174.72;5068028;28;20042;-82
2022/07/17 00:12:54;;;;;;;4.07;2.35;;;;;;;17.57;76.20;101174.09;5084028;28;20039;-82
2022/07/17 00:15:20;;;;;;;6.75;2.47;;;;;;;17.57;76.61;101175.94;5097671;28;20032;-76
2022/07/17 00:17:46;;;;;;;5.75;2.35;;;;;;;17.58;76.65;101167.72;5073043;28;20484;-76
2022/07/17 00:20:12;;;;;;;2.92;2.47;;;;;;;17.60;76.54;101160.38;5069447;28;20111;-82
2022/07/17 00:22:37;;;;;;;5.00;2.72;;;;;;;17.63;76.24;101153.84;5080029;28;20047;-82
2022/07/17 00:25:04;;;;;;;4.75;2.25;;;;;;;17.67;76.15;101138.31;5084774;28;20112;-76
2022/07/17 00:27:30;;;;;;;3.17;2.53;;;;;;;17.65;76.08;101132.28;5103031;28;20020;-76
2022/07/17 00:29:56;;;;;;;4.20;2.30;;;;;;;17.70;75.66;101130.78;5077933;28;20059;-77
2022/07/17 00:32:23;;;;;;;2.70;2.03;;;;;;;17.75;75.30;101116.03;5085682;28;20071;-76
2022/07/17 00:34:50;;;;;;;3.38;2.30;;;;;;;17.80;75.55;101114.53;5084193;28;20099;-82
2022/07/17 00:37:16;;;;;;;5.60;2.28;;;;;;;17.83;74.87;101127.53;5068320;28;20030;-82
2022/07/17 00:39:42;;;;;;;2.53;1.90;;;;;;;17.80;74.90;101125.22;5063691;28;20027;-82
2022/07/17 00:42:12;;;;;;;6.28;2.30;;;;;;;17.84;74.76;101112.31;5086496;28;20036;-82
2022/07/17 00:44:40;;;;;;;6.38;2.33;;;;;;;17.83;74.40;101124.88;5086700;28;20078;-76
2022/07/17 00:47:17;;;;;;;3.63;2.15;;;;;;;17.87;74.31;101128.00;5087312;28;20093;-76
2022/07/17 00:49:43;;;;;;;3.10;2.25;;;;;;;17.92;74.08;101127.47;5084367;28;20639;-80
2022/07/17 00:52:10;;;;;;;2.65;1.90;;;;;;;17.93;74.14;101123.81;5087002;28;20105;-82
2022/07/17 00:54:41;;;;;;;2.33;2.13;;;;;;;17.96;73.72;101120.78;5072346;28;20036;-82
2022/07/17 00:57:12;;;;;;;3.15;1.92;;;;;;;17.94;73.33;101128.13;5071246;28;20036;-82
2022/07/17 00:59:39;;;;;;;2.95;2.00;;;;;;;17.89;73.54;101133.16;5084133;28;20479;-82
2022/07/17 01:02:07;;;;;;;6.35;2.10;;;;;;;17.82;73.78;101141.91;5085069;28;20067;-82
2022/07/17 01:04:35;;;;;;;2.95;2.65;;;;;;;17.72;73.61;101128.78;5069514;28;20060;-82
2022/07/17 01:07:04;;;;;;;4.60;2.05;;;;;;;17.65;74.14;101125.13;5065499;28;20389;-82
2022/07/17 01:09:32;;;;;;;4.13;2.35;;;;;;;17.66;74.10;101131.31;5070515;28;20036;-82
2022/07/17 01:11:58;;;;;;;3.25;2.47;;;;;;;17.65;74.02;101137.63;5085098;28;20035;-81
2022/07/17 01:14:25;;;;;;;4.53;2.30;;;;;;;17.66;74.01;101142.81;5104307;28;20024;-76
2022/07/17 01:16:52;;;;;;;3.13;2.00;;;;;;;17.65;73.76;101151.84;5066179;28;20145;-76
2022/07/17 01:19:20;;;;;;;3.35;2.10;;;;;;;17.60;73.71;101157.72;5072527;28;20034;-82
2022/07/17 01:21:49;;;;;;;3.40;2.25;;;;;;;17.48;73.88;101149.25;5104814;28;20384;-81
2022/07/17 01:24:16;;;;;;;2.28;2.00;;;;;;;17.41;74.32;101158.94;5090108;28;20047;-82
2022/07/17 01:26:44;;;;;;;4.65;2.20;;;;;;;17.36;74.44;101154.13;5090060;28;20047;-82
2022/07/17 01:29:11;;;;;;;5.07;2.40;;;;;;;17.28;74.53;101172.84;5058058;28;20550;-76
2022/07/17 01:31:39;;;;;;;6.50;2.72;;;;;;;17.17;74.59;101173.22;5089631;28;20476;-76
2022/07/17 01:34:06;;;;;;;6.15;2.97;;;;;;;17.06;75.15;101169.88;5072878;28;20053;-82
2022/07/17 01:36:34;;;;;;;5.90;2.58;;;;;;;17.05;75.58;101170.03;5072025;28;20031;-82
2022/07/17 01:39:00;;;;;;;5.15;2.70;;;;;;;17.03;75.96;101172.88;5072608;28;20088;-81
2022/07/17 01:41:26;;;;;;;7.60;2.83;;;;;;;17.05;75.75;101172.69;5088571;28;20024;-82
2022/07/17 01:43:51;;;;;;;6.38;2.50;;;;;;;17.07;75.82;101158.16;5073077;28;20043;-82
2022/07/17 01:46:17;;;;;;;3.55;2.60;;;;;;;17.09;75.63;101158.03;5091505;28;20433;-82
2022/07/17 01:48:43;;;;;;;4.40;2.95;;;;;;;17.16;75.46;101158.19;5089583;28;20032;-76
2022/07/17 01:51:09;;;;;;;3.17;2.63;;;;;;;17.19;75.19;101156.00;5092432;28;20109;-76
2022/07/17 01:53:35;;;;;;;4.55;2.45;;;;;;;17.12;74.89;101149.66;5099306;28;20040;-82
2022/07/17 01:56:00;;;;;;;11.10;2.90;;;;;;;17.08;74.85;101143.84;5107669;28;20028;-81
2022/07/17 01:58:27;;;;;;;3.80;3.05;;;;;;;16.96;74.73;101140.66;5073815;28;21646;-82
2022/07/17 02:00:53;;;;;;;6.32;3.03;;;;;;;16.86;74.98;101135.53;5074105;28;20027;-81
2022/07/17 02:03:21;;;;;;;3.88;3.45;;;;;;;16.75;75.16;101130.53;5092129;28;20409;-81
2022/07/17 02:05:47;;;;;;;3.80;2.67;;;;;;;16.67;75.49;101127.88;5092237;28;20032;-81
2022/07/17 02:08:13;;;;;;;3.20;2.63;;;;;;;16.56;75.70;101137.84;5090019;28;20028;-81
2022/07/17 02:10:39;;;;;;;5.15;2.83;;;;;;;16.54;76.21;101136.38;5090699;28;20040;-81
2022/07/17 02:13:06;;;;;;;3.83;2.47;;;;;;;16.60;76.13;101149.03;5071883;28;20039;-81
2022/07/17 02:15:32;;;;;;;3.22;2.90;;;;;;;16.66;76.07;101155.56;5088422;28;20365;-76
2022/07/17 02:17:59;;;;;;;4.38;2.53;;;;;;;16.66;75.88;101158.22;5090415;28;20060;-76
2022/07/17 02:20:25;;;;;;;13.10;4.07;;;;;;;16.66;75.87;101160.91;5093943;28;20496;-82
2022/07/17 02:22:51;;;;;;;4.82;2.95;;;;;;;16.64;75.79;101154.88;5095750;28;20032;-82
2022/07/17 02:25:18;;;;;;;3.05;2.05;;;;;;;16.71;75.69;101148.72;5057766;28;20408;-82
2022/07/17 02:27:44;;;;;;;3.97;2.50;;;;;;;16.66;75.44;101143.03;5087618;28;20039;-81
2022/07/17 02:30:14;;;;;;;4.15;2.58;;;;;;;16.56;75.25;101145.88;5087607;28;20020;-82
2022/07/17 02:32:41;;;;;;;5.03;3.00;;;;;;;16.48;75.60;101151.22;5083762;28;20036;-82
2022/07/17 02:35:08;;;;;;;5.45;2.80;;;;;;;16.43;76.27;101150.88;5070284;28;20117;-82
2022/07/17 02:37:34;;;;;;;2.95;2.47;;;;;;;16.40;76.43;101149.38;5069619;28;20408;-82
2022/07/17 02:40:00;;;;;;;5.75;2.78;;;;;;;16.40;76.58;101148.53;5086674;28;20031;-82
2022/07/17 02:42:28;;;;;;;6.47;3.25;;;;;;;16.40;76.48;101157.38;5086602;28;20027;-82
2022/07/17 02:44:55;;;;;;;5.13;2.78;;;;;;;16.42;76.65;101163.38;5071682;28;20471;-82
2022/07/17 02:47:33;;;;;;;6.22;2.75;;;;;;;16.46;76.56;101164.72;5088741;28;20446;-81
2022/07/17 02:50:01;;;;;;;6.60;2.65;;;;;;;16.48;76.59;101156.56;5085473;28;20035;-81
2022/07/17 02:52:28;;;;;;;8.60;2.97;;;;;;;16.48;76.49;101149.38;5068443;28;20036;-81
2022/07/17 02:54:53;;;;;;;3.33;2.58;;;;;;;16.48;76.41;101146.69;5083924;28;20044;-82
2022/07/17 02:57:20;;;;;;;5.05;3.58;;;;;;;16.48;76.49;101149.38;5083372;28;20056;-82
2022/07/17 02:59:45;;;;;;;5.43;3.40;;;;;;;16.44;76.45;101153.38;5084633;28;20071;-76
2022/07/17 03:02:11;;;;;;;6.82;3.00;;;;;;;16.43;76.51;101158.88;5086381;28;20443;-76
2022/07/17 03:04:38;;;;;;;4.88;2.92;;;;;;;16.42;76.57;101149.22;5085952;28;20078;-76
2022/07/17 03:07:03;;;;;;;4.10;3.13;;;;;;;16.40;76.57;101146.72;5090489;28;20561;-76
2022/07/17 03:09:29;;;;;;;8.05;3.38;;;;;;;16.42;76.47;101149.22;5102737;28;20026;-81
2022/07/17 03:11:55;;;;;;;5.97;2.90;;;;;;;16.44;76.44;101141.88;5086303;28;20032;-81
2022/07/17 03:14:21;;;;;;;5.35;3.55;;;;;;;16.44;76.28;101142.72;5073335;28;20495;-81
2022/07/17 03:16:47;;;;;;;4.72;3.35;;;;;;;16.48;76.38;101143.22;5071789;28;20058;-81
2022/07/17 03:19:12;;;;;;;3.03;2.72;;;;;;;16.50;76.02;101141.19;5093604;28;20086;-81
2022/07/17 03:21:38;;;;;;;3.92;2.97;;;;;;;16.52;75.82;101133.88;5090479;28;20028;-81
2022/07/17 03:24:04;;;;;;;4.93;3.15;;;;;;;16.45;75.71;101125.69;5088722;28;20391;-81
2022/07/17 03:26:30;;;;;;;4.32;3.33;;;;;;;16.37;75.73;101126.53;5090310;28;20035;-82
2022/07/17 03:28:56;;;;;;;4.90;3.15;;;;;;;16.32;76.24;101133.38;5088053;28;20430;-81
2022/07/17 03:31:22;;;;;;;9.10;3.70;;;;;;;16.33;76.40;101138.53;5089264;28;20470;-82
2022/07/17 03:33:47;;;;;;;4.55;3.00;;;;;;;16.40;75.99;101138.72;5086425;28;20063;-81
2022/07/17 03:36:13;;;;;;;4.50;3.22;;;;;;;16.39;75.97;101141.53;5090220;28;20031;-82
2022/07/17 03:38:39;;;;;;;9.43;3.83;;;;;;;16.29;75.77;101141.69;5085108;28;20086;-82
2022/07/17 03:41:05;;;;;;;4.85;3.30;;;;;;;16.06;76.27;101134.31;5087814;28;20071;-82
2022/07/17 03:43:31;;;;;;;4.43;3.35;;;;;;;15.87;77.23;101134.44;5064522;28;20036;-82
2022/07/17 03:45:57;;;;;;;7.85;3.45;;;;;;;15.67;77.67;101133.84;5089691;28;20027;-82
2022/07/17 03:48:22;;;;;;;6.13;3.78;;;;;;;15.50;78.48;101139.13;5085068;28;20119;-82
2022/07/17 03:50:48;;;;;;;3.30;2.90;;;;;;;15.45;78.73;101135.28;5105710;28;20484;-82
2022/07/17 03:53:14;;;;;;;3.97;3.30;;;;;;;15.53;78.54;101135.28;5081679;28;20024;-82
2022/07/17 03:55:40;;;;;;;3.72;3.33;;;;;;;15.63;77.87;101127.19;5071769;28;20043;-76
2022/07/17 03:58:06;;;;;;;5.07;3.10;;;;;;;15.72;77.63;101120.03;5089851;28;20035;-76
2022/07/17 04:00:31;;;;;;;6.78;3.30;;;;;;;15.82;77.21;101123.41;5089736;28;20028;-82
2022/07/17 04:02:57;;;;;;;3.85;3.45;;;;;;;15.87;77.06;101126.44;5082977;28;20046;-82
2022/07/17 04:05:23;;;;;;;4.78;3.17;;;;;;;15.94;76.83;101129.25;5088418;28;20083;-81
2022/07/17 04:07:49;;;;;;;4.40;3.70;;;;;;;16.03;76.69;101115.97;5082607;28;20101;-81
2022/07/17 04:10:15;;;;;;;6.65;3.53;;;;;;;16.06;76.67;101113.00;5079263;28;20066;-82
2022/07/17 04:12:41;;;;;;;4.47;3.05;;;;;;;16.08;76.42;101119.84;5064443;28;20480;-82
2022/07/17 04:15:08;;;;;;;6.78;3.00;;;;;;;16.05;76.40;101112.19;5052647;28;20031;-82
2022/07/17 04:17:34;;;;;;;8.52;3.83;;;;;;;16.03;76.15;101107.97;5083598;28;20032;-82
2022/07/17 04:20:01;;;;;;;5.57;3.60;;;;;;;15.99;76.11;101108.31;5080347;28;20023;-82
2022/07/17 04:22:27;;;;;;;14.38;4.13;;;;;;;15.95;75.95;101106.94;5087345;28;20097;-82
2022/07/17 04:24:52;;;;;;;4.68;4.15;;;;;;;15.92;75.90;101104.63;5089235;28;20480;-81
2022/07/17 04:27:18;;;;;;;7.30;4.63;;;;;;;15.88;76.35;101105.91;5072410;28;20028;-82
2022/07/17 04:29:44;;;;;;;6.45;4.82;;;;;;;15.85;76.73;101107.09;5087818;28;20028;-82
2022/07/17 04:32:11;;;;;;;4.32;3.25;;;;;;;15.89;76.72;101112.94;5053781;28;20436;-81
2022/07/17 04:34:36;;;;;;;5.35;3.60;;;;;;;15.93;76.64;101100.09;5069565;28;20050;-81
2022/07/17 04:37:03;;;;;;;4.90;2.97;;;;;;;15.92;76.68;101096.63;5088778;28;20103;-81
2022/07/17 04:39:30;;;;;;;4.40;3.55;;;;;;;15.94;76.51;101088.47;5070183;28;20039;-81
2022/07/17 04:41:56;;;;;;;4.65;3.83;;;;;;;15.97;76.26;101086.31;5088736;28;20127;-81
2022/07/17 04:44:22;;;;;;;4.28;3.40;;;;;;;16.01;76.40;101078.00;5096638;28;20103;-81
2022/07/17 04:46:48;;;;;;;4.25;3.85;;;;;;;16.02;76.40;101079.66;5091030;28;20107;-81
2022/07/17 04:49:14;;;;;;;4.82;3.58;;;;;;;15.98;76.34;101081.81;5090783;28;20039;-81
2022/07/17 04:51:40;;;;;;;5.75;3.30;;;;;;;15.88;76.41;101084.59;5087174;28;20030;-81
2022/07/17 04:54:06;;;;;;;3.40;3.10;;;;;;;15.77;76.71;101088.41;5079971;28;20035;-81
2022/07/17 04:56:32;;;;;;;5.30;3.13;;;;;;;15.66;76.98;101086.88;5091291;28;20056;-82
2022/07/17 04:58:58;;;;;;;5.05;3.78;;;;;;;15.50;77.16;101093.84;5093418;28;20490;-82
2022/07/17 05:01:24;;;;;;;4.72;3.90;;;;;;;15.29;77.89;101096.91;5076322;28;20020;-82
2022/07/17 05:03:50;;;;;;;6.07;3.55;;;;;;;15.14;78.58;101099.34;5094587;28;20492;-81
2022/07/17 05:06:15;;;;;;;5.78;3.75;;;;;;;15.03;79.42;101103.13;5109179;28;20040;-82
2022/07/17 05:08:41;;;;;;;5.93;3.85;;;;;;;15.06;79.86;101097.47;5095551;28;20040;-81
2022/07/17 05:11:07;;;;;;;5.78;3.55;;;;;;;15.19;79.68;101091.72;5085196;28;20107;-82
2022/07/17 05:13:34;;;;;;;6.63;3.80;;;;;;;15.29;79.44;101088.09;5090819;28;20052;-82
2022/07/17 05:15:59;;;;;;;4.55;4.07;;;;;;;15.33;79.47;101076.13;5089953;28;20037;-82
2022/07/17 05:18:25;;;;;;;6.13;3.97;;;;;;;15.38;79.26;101068.47;5091016;28;20546;-82
2022/07/17 05:20:51;;;;;;;7.38;4.70;;;;;;;15.45;78.96;101063.34;5089040;28;20032;-82
2022/07/17 05:23:17;;;;;;;6.65;4.22;;;;;;;15.51;79.25;101065.38;5087148;28;20024;-82
2022/07/17 05:25:43;;;;;;;7.13;4.32;;;;;;;15.55;79.01;101061.38;5073994;28;20093;-82
2022/07/17 05:28:09;;;;;;;6.30;3.35;;;;;;;15.58;79.05;101058.38;5072377;28;20114;-82
2022/07/17 05:30:35;;;;;;;5.68;3.20;;;;;;;15.66;78.83;101065.56;5072191;28;20123;-82
2022/07/17 05:33:01;;;;;;;8.82;3.65;;;;;;;15.69;78.45;101062.56;5089283;28;20080;-81
2022/07/17 05:35:27;;;;;;;4.90;3.50;;;;;;;15.68;78.78;101054.75;5072926;28;20560;-76
2022/07/17 05:37:53;;;;;;;5.47;4.07;;;;;;;15.72;78.90;101053.41;5084599;28;20040;-76
2022/07/17 05:40:18;;;;;;;7.53;4.28;;;;;;;15.76;78.61;101060.09;5088185;28;20032;-82
2022/07/17 05:42:44;;;;;;;6.25;4.53;;;;;;;15.80;78.56;101056.09;5090345;28;20170;-82
2022/07/17 05:45:10;;;;;;;4.53;3.70;;;;;;;15.87;78.17;101056.28;5091318;28;20085;-82
2022/07/17 05:47:36;;;;;;;5.55;3.80;;;;;;;15.86;78.21;101054.63;5088682;28;20035;-83
2022/07/17 05:50:02;;;;;;;9.27;4.95;;;;;;;15.82;78.34;101066.59;5082341;28;20085;-82
2022/07/17 05:52:28;;;;;;;6.80;4.70;;;;;;;15.68;78.73;101068.06;5087640;28;20451;-82
2022/07/17 05:54:54;;;;;;;5.47;4.03;;;;;;;15.60;79.15;101066.22;5090285;28;20033;-81
2022/07/17 05:57:20;;;;;;;4.30;3.90;;;;;;;15.55;79.59;101061.38;5092720;28;20134;-82
2022/07/17 05:59:46;;;;;;;7.50;4.00;;;;;;;15.59;79.81;101060.03;5089407;28;20111;-82
2022/07/17 06:02:12;;;;;;;4.78;3.38;;;;;;;15.65;79.79;101055.91;5072677;28;20492;-82
2022/07/17 06:04:38;;;;;;;5.65;4.30;;;;;;;15.74;79.54;101067.41;5066379;28;20035;-82
2022/07/17 06:07:04;;;;;;;4.90;3.95;;;;;;;15.75;79.53;101061.91;5080779;28;20025;-82
2022/07/17 06:09:29;;;;;;;4.18;3.38;;;;;;;15.76;79.54;101073.44;5107479;28;20059;-82
2022/07/17 06:11:55;;;;;;;7.57;4.10;;;;;;;15.72;80.04;101077.38;5071922;28;20032;-81
2022/07/17 06:14:21;;;;;;;6.78;3.47;;;;;;;15.65;80.33;101084.38;5090906;28;20032;-82
2022/07/17 06:16:47;;;;;;;7.63;4.10;;;;;;;15.55;80.80;101084.50;5074299;28;20028;-82
2022/07/17 06:19:13;;;;;;;7.97;3.97;;;;;;;15.46;81.59;101081.00;5077501;28;20028;-82
2022/07/17 06:21:38;;;;;;;5.78;4.15;;;;;;;15.45;81.88;101087.34;5070268;28;20043;-82
2022/07/17 06:24:04;;;;;;;3.90;3.40;;;;;;;15.57;81.92;101082.53;5087271;28;20039;-81
2022/07/17 06:26:30;;;;;;;4.00;3.63;;;;;;;15.67;81.69;101074.41;5091982;28;20024;-82
2022/07/17 06:28:56;;;;;;;4.57;3.80;;;;;;;15.75;81.59;101083.25;5093760;28;20451;-76
2022/07/17 06:31:22;;;;;;;4.53;3.85;;;;;;;15.82;81.56;101080.75;5074568;28;20032;-76
2022/07/17 06:33:48;;;;;;;6.05;3.25;;;;;;;15.91;81.38;101073.59;5104963;28;20097;-82
2022/07/17 06:36:14;;;;;;;6.88;3.60;;;;;;;15.97;81.23;101077.47;5089476;28;20118;-82
2022/07/17 06:38:40;;;;;;;6.38;4.07;;;;;;;16.02;81.59;101077.00;5090326;28;20603;-82
2022/07/17 06:41:06;;;;;;;4.28;3.80;;;;;;;16.14;81.67;101069.50;5070941;28;20093;-81
2022/07/17 06:43:32;;;;;;;4.95;4.00;;;;;;;16.25;81.43;101066.50;5085309;28;20043;-82
2022/07/17 06:45:57;;;;;;;5.93;4.00;;;;;;;16.33;81.39;101063.84;5089936;28;20405;-81
2022/07/17 06:48:23;;;;;;;4.18;3.50;;;;;;;16.32;81.51;101072.00;5085044;28;20029;-82
2022/07/17 06:50:49;;;;;;;6.68;4.10;;;;;;;16.29;81.87;101077.69;5087633;28;20036;-82
2022/07/17 06:53:15;;;;;;;7.93;4.32;;;;;;;16.22;82.21;101070.34;5073206;28;20031;-82
2022/07/17 06:55:42;;;;;;;4.78;3.70;;;;;;;16.27;82.82;101059.19;5073268;28;20028;-82
2022/07/17 06:58:08;;;;;;;5.80;3.13;;;;;;;16.36;82.83;101066.16;5103950;28;20056;-82
2022/07/17 07:00:34;;;;;;;8.05;4.75;;;;;;;16.47;82.87;101064.16;5083759;28;20091;-81
2022/07/17 07:03:01;;;;;;;9.07;5.20;;;;;;;16.53;82.90;101052.81;5074316;28;20028;-81
2022/07/17 07:05:26;;;;;;;6.65;4.60;;;;;;;16.52;83.26;101052.97;5084223;28;20040;-81
2022/07/17 07:07:52;;;;;;;8.18;5.28;;;;;;;16.58;83.04;101060.31;5072903;28;20040;-82
2022/07/17 07:10:18;;;;;;;7.55;4.50;;;;;;;16.57;83.25;101061.31;5089901;28;20063;-82
2022/07/17 07:12:44;;;;;;;5.35;4.22;;;;;;;16.66;83.27;101068.31;5087302;28;20031;-82
2022/07/17 07:15:10;;;;;;;10.95;4.13;;;;;;;16.72;82.86;101069.47;5085352;28;20157;-82
2022/07/17 07:17:36;;;;;;;5.57;3.78;;;;;;;16.89;82.90;101062.25;5088225;28;20104;-82
2022/07/17 07:20:04;;;;;;;6.47;4.10;;;;;;;17.07;82.31;101056.66;5081234;28;20040;-81
2022/07/17 07:22:30;;;;;;;6.07;4.22;;;;;;;17.24;81.96;101053.97;5060576;28;20040;-82
2022/07/17 07:24:56;;;;;;;4.68;4.07;;;;;;;17.41;81.26;101051.22;5085362;28;20032;-81
2022/07/17 07:27:22;;;;;;;5.10;3.72;;;;;;;17.64;80.46;101064.66;5089045;28;20538;-82
2022/07/17 07:29:49;;;;;;;5.97;3.83;;;;;;;17.76;79.31;101061.56;5090202;28;20122;-82
2022/07/17 07:32:15;;;;;;;5.97;3.63;;;;;;;17.84;78.98;101056.16;5091555;28;20515;-81
2022/07/17 07:34:41;;;;;;;6.63;3.95;;;;;;;18.03;78.35;101062.06;5085965;28;20052;-82
2022/07/17 07:37:07;;;;;;;6.47;4.00;;;;;;;18.24;77.63;101061.41;5091057;28;20032;-82
2022/07/17 07:39:33;;;;;;;5.20;4.05;;;;;;;18.39;77.09;101053.44;5092402;28;20032;-82
2022/07/17 07:41:59;;;;;;;5.22;3.60;;;;;;;18.62;76.60;101051.72;5087998;28;20051;-81
2022/07/17 07:44:26;;;;;;;6.40;3.88;;;;;;;18.71;75.82;101055.97;5090397;28;20118;-81
2022/07/17 07:46:52;;;;;;;3.83;2.40;;;;;;;18.83;75.49;101046.44;5088542;28;20028;-81
2022/07/17 07:49:18;;;;;;;3.53;2.88;;;;;;;19.01;74.70;101055.13;5083751;28;20032;-81
2022/07/17 07:51:44;;;;;;;4.40;2.50;;;;;;;19.15;73.77;101061.50;5104191;28;20039;-81
2022/07/17 07:54:10;;;;;;;3.17;2.60;;;;;;;19.27;73.16;101057.34;5091827;28;20024;-81
2022/07/17 07:56:36;;;;;;;3.40;2.63;;;;;;;19.46;72.64;101047.88;5073794;28;20032;-81
2022/07/17 07:59:03;;;;;;;5.85;3.20;;;;;;;19.62;71.93;101039.81;5088753;28;20043;-81
2022/07/17 08:01:29;;;;;;;5.72;3.33;;;;;;;19.66;71.57;101036.53;5056494;28;20052;-81
2022/07/17 08:03:55;;;;;;;7.15;3.40;;;;;;;19.65;71.67;101032.19;5102353;28;20096;-76
2022/07/17 08:06:21;;;;;;;5.88;3.40;;;;;;;19.59;71.81;101033.78;5090126;28;20074;-76
2022/07/17 08:08:47;;;;;;;5.28;3.33;;;;;;;19.51;71.89;101022.38;5085261;28;20094;-81
2022/07/17 08:11:14;;;;;;;6.35;3.40;;;;;;;19.54;71.80;101028.16;5087649;28;20029;-81
2022/07/17 08:13:40;;;;;;;4.07;3.08;;;;;;;19.53;71.81;101033.72;5068801;28;20362;-81
2022/07/17 08:16:06;;;;;;;5.03;3.28;;;;;;;19.53;71.51;101026.50;5096898;28;20032;-81
2022/07/17 08:18:33;;;;;;;4.57;3.00;;;;;;;19.53;71.32;101022.97;5053258;28;20032;-81
2022/07/17 08:20:58;;;;;;;3.70;3.28;;;;;;;19.53;70.95;101025.66;5066953;28;20251;-81
2022/07/17 08:23:24;;;;;;;5.43;2.95;;;;;;;19.47;70.87;101013.88;5071199;28;20392;-81
2022/07/17 08:25:50;;;;;;;5.63;3.50;;;;;;;19.42;70.86;101009.06;5090075;28;20055;-81
2022/07/17 08:28:16;;;;;;;7.40;3.75;;;;;;;19.49;70.91;101002.94;5089173;28;20036;-81
2022/07/17 08:30:41;;;;;;;3.70;2.90;;;;;;;19.65;70.65;101007.25;5098422;28;20031;-81
2022/07/17 08:33:09;;;;;;;6.47;3.20;;;;;;;19.77;70.09;101003.03;5070983;28;20058;-81
2022/07/17 08:35:36;;;;;;;5.22;2.95;;;;;;;19.84;69.82;101005.78;5085083;28;20536;-81
2022/07/17 08:38:03;;;;;;;5.55;3.03;;;;;;;19.94;69.34;101005.44;5091806;28;20032;-82
2022/07/17 08:40:35;;;;;;;3.95;2.88;;;;;;;20.02;68.65;101004.47;5071887;28;20054;-81
2022/07/17 08:43:04;;;;;;;4.22;3.42;;;;;;;20.03;68.29;100990.06;5104730;28;20024;-81
2022/07/17 08:45:30;;;;;;;3.45;3.15;;;;;;;19.97;68.16;100986.28;5089763;28;20028;-81
2022/07/17 08:47:56;;;;;;;5.47;3.08;;;;;;;19.93;68.03;100985.84;5089009;28;20144;-82
2022/07/17 08:50:29;;;;;;;3.40;2.85;;;;;;;19.93;67.84;100983.16;5086149;28;20020;-82
2022/07/17 08:52:55;;;;;;;3.38;3.00;;;;;;;19.94;67.78;100984.00;5104583;27;20054;-81
2022/07/17 08:55:21;;;;;;;5.20;2.83;;;;;;;19.89;67.59;100975.69;5090634;28;20036;-81
2022/07/17 08:57:47;;;;;;;5.45;2.97;;;;;;;19.89;67.49;100976.50;5088675;28;20111;-82
2022/07/17 09:00:18;;;;;;;4.85;2.83;;;;;;;19.88;67.40;100984.75;5088040;28;20099;-81
2022/07/17 09:03:01;;;;;;;4.68;2.95;;;;;;;19.83;67.77;100985.31;5090973;28;20123;-81
2022/07/17 09:05:36;;;;;;;5.38;3.03;;;;;;;19.89;67.61;100981.06;5090740;28;20081;-76
2022/07/17 09:08:03;;;;;;;3.90;2.97;;;;;;;19.89;67.86;100975.69;5088758;28;20036;-76
2022/07/17 09:10:54;;;;;;;5.60;3.15;;;;;;;19.89;67.59;100979.19;5088493;28;20043;-81
2022/07/17 09:13:25;;;;;;;5.35;2.95;;;;;;;19.92;67.65;100976.09;5087244;28;20092;-76
2022/07/17 09:15:54;;;;;;;7.20;3.83;;;;;;;19.89;67.55;100971.13;5092759;28;20483;-76
2022/07/17 09:18:20;;;;;;;4.05;2.88;;;;;;;19.89;67.51;100973.81;5084028;28;20373;-76
2022/07/17 09:20:49;;;;;;;7.22;3.10;;;;;;;19.91;67.79;100969.09;5071806;28;20115;-76
2022/07/17 09:23:16;;;;;;;6.32;2.97;;;;;;;19.97;67.83;100975.56;5092265;28;20055;-81
2022/07/17 09:25:44;;;;;;;7.22;3.38;;;;;;;20.05;67.64;100980.78;5075763;28;20028;-81
2022/07/17 09:28:13;;;;;;;6.60;3.28;;;;;;;20.13;67.97;100976.31;5086678;28;20081;-81
2022/07/17 09:30:46;;;;;;;5.22;3.38;;;;;;;20.17;67.70;100965.00;5091130;28;20031;-76
2022/07/17 09:33:26;;;;;;;4.43;3.00;;;;;;;20.23;67.98;100973.28;5087341;28;20074;-76
2022/07/17 09:35:55;;;;;;;5.60;3.10;;;;;;;20.29;68.17;100969.81;5107401;28;20050;-81
2022/07/17 09:38:35;;;;;;;7.20;3.10;;;;;;;20.35;68.25;100974.41;5091032;28;20559;-82
2022/07/17 09:41:11;;;;;;;6.53;3.30;;;;;;;20.48;67.80;100970.94;5071427;28;20117;-81
2022/07/17 09:43:44;;;;;;;6.38;3.20;;;;;;;20.52;67.81;100964.19;5089703;28;20028;-76
2022/07/17 09:46:19;;;;;;;4.18;3.13;;;;;;;20.64;68.11;100960.94;5089472;28;20031;-76
2022/07/17 09:48:48;;;;;;;4.67;3.13;;;;;;;20.69;67.68;100951.25;5086289;28;20016;-81
2022/07/17 09:51:34;;;;;;;4.15;3.45;;;;;;;20.78;67.59;100957.28;5086669;28;20525;-81
2022/07/17 09:54:03;;;;;;;3.97;2.70;;;;;;;20.89;67.40;100960.41;5087535;28;20089;-81
2022/07/17 09:56:31;;;;;;;6.30;2.88;;;;;;;21.00;67.14;100956.34;5075794;28;20078;-80
2022/07/17 09:59:06;;;;;;;3.92;3.10;;;;;;;21.05;66.80;100953.91;5090647;28;20102;-81
2022/07/17 10:01:33;;;;;;;5.97;2.88;;;;;;;21.09;66.98;100944.38;5083698;28;20082;-81
2022/07/17 10:03:58;;;;;;;6.63;2.92;;;;;;;21.22;67.32;100943.59;5076787;28;20039;-81
2022/07/17 10:06:26;;;;;;;4.93;3.03;;;;;;;21.33;67.32;100939.47;5072280;28;20034;-81
2022/07/17 10:08:53;;;;;;;4.05;3.38;;;;;;;21.37;67.00;100938.06;5088613;28;20050;-81
2022/07/17 10:11:21;;;;;;;4.85;2.92;;;;;;;21.44;66.55;100940.72;5086106;28;20494;-82
2022/07/17 10:13:48;;;;;;;3.40;2.83;;;;;;;21.54;66.59;100937.66;5088616;28;20028;-81
2022/07/17 10:16:24;;;;;;;4.22;3.13;;;;;;;21.64;66.51;100935.41;5076678;28;20028;-81
2022/07/17 10:18:52;;;;;;;6.18;2.72;;;;;;;21.73;66.15;100938.69;5087769;28;20107;-81
2022/07/17 10:21:19;;;;;;;4.60;2.78;;;;;;;21.84;65.66;100931.03;5070457;28;20024;-82
2022/07/17 10:23:53;;;;;;;4.20;2.80;;;;;;;21.95;65.37;100927.72;5093811;28;20032;-81
2022/07/17 10:26:43;;;;;;;7.30;2.65;;;;;;;22.01;65.41;100926.91;5070027;28;20039;-81
2022/07/17 10:29:28;;;;;;;5.80;3.10;;;;;;;22.20;65.34;100924.41;5090746;28;20103;-81
2022/07/17 10:31:54;;;;;;;8.07;3.08;;;;;;;22.37;64.76;100926.63;5087014;28;20470;-82
2022/07/17 10:34:39;;;;;;;5.70;2.78;;;;;;;22.51;63.28;100927.41;5048180;28;20543;-82
2022/07/17 10:37:17;;;;;;;5.97;3.08;;;;;;;22.63;63.30;100925.72;5068069;28;20195;-81
2022/07/17 10:39:53;;;;;;;3.33;2.30;;;;;;;22.79;63.73;100931.69;5088892;28;20024;-82
2022/07/17 10:42:43;;;;;;;3.42;2.63;;;;;;;22.92;62.86;100917.31;5071280;28;20039;-81
2022/07/17 10:45:16;;;;;;;3.40;2.53;;;;;;;23.14;63.52;100915.09;5088860;28;20012;-81
2022/07/17 10:47:59;;;;;;;5.13;2.50;;;;;;;23.34;62.78;100924.94;5089845;28;20026;-81
2022/07/17 10:50:36;;;;;;;5.70;3.30;;;;;;;23.52;62.35;100921.50;5053431;28;20376;-81
2022/07/17 10:53:16;;;;;;;5.35;2.83;;;;;;;23.56;62.02;100916.50;5071843;28;20039;-82
2022/07/17 10:55:44;;;;;;;11.43;2.70;;;;;;;23.68;61.60;100908.53;5071019;28;20032;-81
2022/07/17 10:58:25;;;;;;;5.45;2.67;;;;;;;23.72;61.19;100909.72;5075963;28;20056;-82
2022/07/17 11:01:02;;;;;;;3.97;2.58;;;;;;;23.76;61.09;100907.44;5068002;28;20036;-82
2022/07/17 11:03:30;;;;;;;2.55;1.98;;;;;;;23.87;60.69;100897.78;5070006;28;20050;-82
2022/07/17 11:06:06;;;;;;;2.53;2.20;;;;;;;23.93;59.72;100902.28;5084170;28;20025;-82
2022/07/17 11:08:36;;;;;;;9.30;2.90;;;;;;;23.97;59.85;100897.25;5105252;28;20028;-82
2022/07/17 11:11:02;;;;;;;3.92;2.35;;;;;;;24.00;59.52;100896.81;5089484;28;20104;-82
2022/07/17 11:13:28;;;;;;;5.10;2.42;;;;;;;23.99;59.77;100895.16;5084593;28;20321;-82
2022/07/17 11:15:54;;;;;;;4.82;2.40;;;;;;;23.92;59.63;100887.13;5096385;28;20062;-82
2022/07/17 11:18:21;;;;;;;4.38;2.30;;;;;;;23.89;59.52;100893.78;5087946;28;20040;-82
2022/07/17 11:20:52;;;;;;;4.72;2.33;;;;;;;23.90;59.31;100886.53;5086871;28;20030;-82
2022/07/17 11:23:20;;;;;;;5.75;2.40;;;;;;;23.92;59.53;100882.53;5087698;28;20031;-82
2022/07/17 11:26:06;;;;;;;7.97;2.60;;;;;;;23.96;59.69;100885.63;5084708;28;20379;-82